Denver, CO

9:44 AM MDT on March 29, 2017 (GMT -0600)
Front Range | | Change Station

Elev 5512 ft 39.79 °N, 104.54 °W | Updated 49 minutes ago

Overcast
Overcast
39 °F
Feels Like 32 °F
N
13
Wind Variable Wind from North

Today
High -- | Low -- °F
--% Chance of Precip.
Yesterday
High -- | Low -- °F
Precip. -- in
Pressure 30.12 in
Visibility 8.0 miles
Clouds Mostly Cloudy 500 ft
Mostly Cloudy 1200 ft
Overcast 2800 ft
Windchill 32 °F
Dew Point 37 °F
Humidity 93%
Rainfall 0.00 in
Snow Depth Not available.
6:46 AM 7:19 PM
Waxing Crescent, 3% visible
METAR KFTG 291455Z 36011KT 8SM BKN005 BKN012 OVC028 04/03 A3012
Pressure 30.12 in
Visibility 8.0 miles
Clouds Mostly Cloudy 500 ft
Mostly Cloudy 1200 ft
Overcast 2800 ft
Windchill 32 °F
Dew Point 37 °F
Humidity 93%
Rainfall 0.00 in
Snow Depth Not available.
6:46 AM 7:19 PM
Waxing Crescent, 3% visible
METAR KFTG 291455Z 36011KT 8SM BKN005 BKN012 OVC028 04/03 A3012

Get Severe Weather Alerts

Thanks for signing up!

Be on the lookout for a verification email in your inbox.

You'll start receiving the daily forecast at 8 AM.

×

10-Day Weather Forecast

Almanac

Astronomy

Mar. 29, 2017 Rise Set
Actual Time
Civil Twilight
Nautical Twilight
Astronomical Twilight
Moon
Length of Visible Light
Length of Day
Tomorrow will be .
, % of the Moon is Illuminated

Today's Extremes

State Highs State Lows

Community

WunderPhotos

Upload Photos

1,962,540 photos uploaded!

WunderBlog® & News

Nearby

Air Quality

  Air Quality AQ Index Pollutant
Not available.

Snow Depth

Station Depth Elevation

Earthquake Activity

City Distance Mag. Time & Date
Minimum magnitude displayed is 2.5.

Earthquake Activity

City Distance Mag. Time & Date
Minimum magnitude displayed is 2.5.

Coastal Water Temperatures

Place Temperature

Stations

Nearby Weather Stations

Station Location Temp. Windchill Dew Point Humidity Wind Precip. Elev Updated Type
                   

Watches & Warnings

There are currently no watches in effect.